Time;durP1;ratioP1;P1;durP2;ratioP2;P2;SDS_P1;SDS_P2;PMS_P1;PMS_P2;Temp;Humidity;BMP_temperature;BMP_pressure;BME280_temperature;BME280_humidity;BME280_pressure;Samples;Min_cycle;Max_cycle;Signal;HPM_P1;HPM_P2
2022/11/23 15:04:25;;;;;;;;;;;;;;;7.43;64.51;98749.69;5029096;28;6670;-74
2022/11/23 15:06:59;;;;;;;;;;;;;;;8.91;61.88;98750.03;5009025;28;7016;-76
2022/11/23 15:09:50;;;;;;;;;;;;;;;10.18;58.43;98751.53;5012878;28;6804;-76
2022/11/23 15:12:26;;;;;;;;;;;;;;;10.94;57.36;98755.72;5023416;28;6964;-76
2022/11/23 15:14:56;;;;;;;;;;;;;;;11.42;56.46;98763.47;5012363;28;8111;-75
2022/11/23 15:17:22;;;;;;;;;;;;;;;11.74;56.10;98763.19;5029134;28;7054;-76
2022/11/23 15:19:59;;;;;;;;;;;;;;;11.96;55.51;98766.94;5008074;28;7773;-76
2022/11/23 15:22:27;;;;;;;;;;;;;;;12.13;55.77;98774.97;5002548;28;6993;-77
2022/11/23 15:25:04;;;;;;;;;;;;;;;12.23;55.19;98768.25;5021886;28;7003;-76
2022/11/23 15:27:29;;;;;;;;;;;;;;;12.34;55.41;98776.13;4992486;28;6982;-75
2022/11/23 15:29:58;;;;;;;;;;;;;;;12.43;55.35;98777.97;5006628;28;7206;-75
2022/11/23 15:32:25;;;;;;;;;;;;;;;12.50;54.88;98787.50;5003842;28;6800;-75
2022/11/23 15:34:55;;;;;;;;;;;;;;;12.55;55.35;98796.13;5006509;28;6862;-75
2022/11/23 15:37:23;;;;;;;;;;;;;;;12.58;55.25;98793.63;5036988;28;7132;-73
2022/11/23 15:39:52;;;;;;;;;;;;;;;12.59;55.00;98797.91;4987471;28;6990;-73
2022/11/23 15:42:23;;;;;;;;;;;;;;;12.59;55.40;98804.75;5004220;28;6816;-74
2022/11/23 15:44:49;;;;;;;;;;;;;;;12.57;55.30;98802.16;5014827;28;6808;-73
2022/11/23 15:47:23;;;;;;;;;;;;;;;12.56;55.04;98808.16;5018679;28;6991;-73
2022/11/23 15:49:49;;;;;;;;;;;;;;;12.52;55.29;98814.06;4986806;28;7905;-73
2022/11/23 15:52:18;;;;;;;;;;;;;;;12.50;55.75;98823.47;5040370;28;7198;-73
2022/11/23 15:54:45;;;;;;;;;;;;;;;12.48;55.47;98827.72;5012883;28;7199;-73
2022/11/23 15:57:20;;;;;;;;;;;;;;;12.45;55.88;98836.25;5007336;28;6994;-72
2022/11/23 15:59:56;;;;;;;;;;;;;;;12.42;55.90;98832.75;5005082;28;6975;-72
2022/11/23 16:02:27;;;;;;;;;;;;;;;12.40;56.12;98839.59;5019018;28;8016;-72
2022/11/23 16:05:17;;;;;;;;;;;;;;;12.35;55.71;98844.66;5013232;28;6795;-72
2022/11/23 16:07:59;;;;;;;;;;;;;;;12.32;55.71;98842.91;5009721;28;6812;-72
2022/11/23 16:10:30;;;;;;;;;;;;;;;12.28;56.38;98841.13;5013643;28;6807;-72
2022/11/23 16:12:58;;;;;;;;;;;;;;;12.27;56.38;98853.94;5019333;28;7031;-72
2022/11/23 16:15:40;;;;;;;;;;;;;;;12.21;56.56;98858.13;5027454;28;6807;-72
2022/11/23 16:18:11;;;;;;;;;;;;;;;12.19;56.13;98857.25;5021966;28;6796;-72
2022/11/23 16:20:54;;;;;;;;;;;;;;;12.17;56.47;98852.94;4995631;28;6918;-72
2022/11/23 16:23:24;;;;;;;;;;;;;;;12.14;56.56;98851.19;5004462;28;6887;-73
2022/11/23 16:26:05;;;;;;;;;;;;;;;12.12;55.87;98849.41;4993328;28;6827;-73
2022/11/23 16:28:35;;;;;;;;;;;;;;;12.11;56.17;98856.25;5008195;28;6995;-73
2022/11/23 16:31:02;;;;;;;;;;;;;;;12.10;56.05;98838.25;5023689;28;7276;-74
2022/11/23 16:33:29;;;;;;;;;;;;;;;12.07;56.57;98841.63;5025070;28;6779;-74
2022/11/23 16:35:55;;;;;;;;;;;;;;;12.05;56.57;98838.19;5013350;28;7088;-73
2022/11/23 16:38:22;;;;;;;;;;;;;;;12.01;56.48;98851.75;5010217;28;6967;-74
2022/11/23 16:40:48;;;;;;;;;;;;;;;12.00;56.66;98856.03;4993145;28;6864;-74
2022/11/23 16:43:16;;;;;;;;;;;;;;;11.99;56.58;98859.47;5010786;28;7273;-74
2022/11/23 16:45:45;;;;;;;;;;;;;;;11.99;56.44;98864.59;4994220;28;6856;-75
2022/11/23 16:48:23;;;;;;;;;;;;;;;11.99;56.78;98862.03;4999787;28;6792;-74
2022/11/23 16:50:51;;;;;;;;;;;;;;;12.02;56.57;98869.81;4991962;28;6792;-74
2022/11/23 16:53:18;;;;;;;;;;;;;;;12.09;56.87;98870.75;4975687;28;7000;-74
2022/11/23 16:56:02;;;;;;;;;;;;;;;12.15;56.65;98870.88;4991233;28;6808;-74
2022/11/23 16:58:34;;;;;;;;;;;;;;;12.21;56.47;98877.81;5008084;28;6807;-73
2022/11/23 17:01:02;;;;;;;;;;;;;;;12.22;56.53;98883.00;5017638;28;6816;-74
2022/11/23 17:03:27;;;;;;;;;;;;;;;12.27;55.87;98872.81;4989969;28;6975;-74
2022/11/23 17:05:54;;;;;;;;;;;;;;;12.28;55.95;98887.38;5016199;28;7434;-73
2022/11/23 17:08:19;;;;;;;;;;;;;;;12.29;56.03;98893.34;4989828;28;6788;-73
2022/11/23 17:10:46;;;;;;;;;;;;;;;12.29;55.86;98893.34;4987863;28;6984;-74
2022/11/23 17:13:25;;;;;;;;;;;;;;;12.26;55.56;98898.44;4989507;28;6799;-74
2022/11/23 17:15:51;;;;;;;;;;;;;;;12.26;56.01;98907.00;4987608;28;7869;-73
2022/11/23 17:18:17;;;;;;;;;;;;;;;12.25;55.57;98912.97;5020507;28;7065;-74
2022/11/23 17:20:43;;;;;;;;;;;;;;;12.26;55.49;98908.72;4991748;28;7001;-74
2022/11/23 17:23:09;;;;;;;;;;;;;;;12.25;55.70;98918.13;4992716;28;6800;-74
2022/11/23 17:25:37;;;;;;;;;;;;;;;12.25;55.98;98923.25;5023274;28;7058;-74
2022/11/23 17:28:09;;;;;;;;;;;;;;;12.24;55.98;98926.66;4973952;28;7058;-73
2022/11/23 17:30:36;;;;;;;;;;;;;;;12.25;55.94;98938.66;5014081;28;7057;-74
2022/11/23 17:33:02;;;;;;;;;;;;;;;12.23;56.03;98932.66;4989074;28;6863;-74
2022/11/23 17:35:27;;;;;;;;;;;;;;;12.24;55.75;98939.50;4987204;28;8878;-74
2022/11/23 17:37:53;;;;;;;;;;;;;;;12.26;56.16;98934.41;4992163;28;6925;-74
2022/11/23 17:40:22;;;;;;;;;;;;;;;12.28;56.50;98938.75;4992794;28;6779;-74
2022/11/23 17:42:47;;;;;;;;;;;;;;;12.30;56.08;98937.06;5021601;28;6868;-74
2022/11/23 17:45:13;;;;;;;;;;;;;;;12.31;56.24;98941.38;4988224;28;6906;-76
2022/11/23 17:47:42;;;;;;;;;;;;;;;12.32;56.52;98945.66;5007271;28;7754;-76
2022/11/23 17:50:18;;;;;;;;;;;;;;;12.31;55.83;98941.38;5024559;28;7272;-77
2022/11/23 17:52:47;;;;;;;;;;;;;;;12.30;56.39;98941.31;4991800;28;7010;-75
2022/11/23 17:55:15;;;;;;;;;;;;;;;12.28;56.13;98951.59;5012471;28;6850;-76
2022/11/23 17:57:43;;;;;;;;;;;;;;;12.24;56.22;98956.66;5000862;28;6998;-77
2022/11/23 18:00:28;;;;;;;;;;;;;;;12.18;56.05;98959.97;4979335;28;8656;-76
2022/11/23 18:02:53;;;;;;;;;;;;;;;12.16;56.56;98959.06;4994102;28;11192;-74
2022/11/23 18:05:19;;;;;;;;;;;;;;;12.11;56.31;98964.09;5006929;28;7462;-74
2022/11/23 18:07:45;;;;;;;;;;;;;;;12.08;56.42;98967.50;5026227;28;7201;-74
2022/11/23 18:10:12;;;;;;;;;;;;;;;12.04;56.28;98975.97;4991882;28;6838;-74
2022/11/23 18:12:39;;;;;;;;;;;;;;;12.00;56.63;98973.28;5001947;28;7017;-75
2022/11/23 18:15:07;;;;;;;;;;;;;;;11.97;56.46;98978.38;4988156;28;6792;-75
2022/11/23 18:17:33;;;;;;;;;;;;;;;11.96;56.49;98987.75;5002051;28;6800;-75
2022/11/23 18:19:59;;;;;;;;;;;;;;;11.93;57.01;98982.56;5015176;28;8674;-75
2022/11/23 18:22:25;;;;;;;;;;;;;;;11.91;57.07;98986.81;4994617;28;7803;-75
2022/11/23 18:24:50;;;;;;;;;;;;;;;11.88;56.65;98995.31;5001390;28;6859;-75
2022/11/23 18:27:16;;;;;;;;;;;;;;;11.87;57.77;98993.59;5001602;28;6788;-75
2022/11/23 18:29:42;;;;;;;;;;;;;;;11.85;57.22;98995.25;5015838;28;7032;-74
2022/11/23 18:32:07;;;;;;;;;;;;;;;11.84;57.42;99008.06;4997728;28;6923;-75
2022/11/23 18:34:34;;;;;;;;;;;;;;;11.84;57.28;99014.06;5005131;28;6911;-75
2022/11/23 18:36:59;;;;;;;;;;;;;;;11.85;57.72;99015.81;5001524;28;6847;-75
2022/11/23 18:39:25;;;;;;;;;;;;;;;11.85;57.70;99020.94;5012779;28;7043;-77
2022/11/23 18:41:51;;;;;;;;;;;;;;;11.84;57.39;99023.47;4995114;28;6767;-75
2022/11/23 18:44:16;;;;;;;;;;;;;;;11.84;57.26;99023.47;5006344;28;8137;-75
2022/11/23 18:46:44;;;;;;;;;;;;;;;11.85;57.71;99025.19;5000780;28;6983;-75
2022/11/23 18:49:10;;;;;;;;;;;;;;;11.86;57.97;99038.06;5010694;28;6788;-75
2022/11/23 18:51:37;;;;;;;;;;;;;;;11.87;57.62;99038.91;5003870;28;6792;-75
2022/11/23 18:54:03;;;;;;;;;;;;;;;11.86;57.83;99034.63;4996164;28;6808;-74
2022/11/23 18:56:28;;;;;;;;;;;;;;;11.89;58.12;99047.53;5019710;28;7189;-76
2022/11/23 18:58:54;;;;;;;;;;;;;;;11.91;57.60;99051.00;5034186;28;8329;-74
2022/11/23 19:01:22;;;;;;;;;;;;;;;11.92;57.81;99051.00;4984494;28;7142;-76
2022/11/23 19:03:51;;;;;;;;;;;;;;;11.92;57.85;99052.72;5016194;28;7409;-74
2022/11/23 19:06:20;;;;;;;;;;;;;;;11.93;57.73;99052.78;5001970;28;6792;-74
2022/11/23 19:08:53;;;;;;;;;;;;;;;11.95;58.04;99048.53;5004604;28;6968;-75
2022/11/23 19:11:22;;;;;;;;;;;;;;;11.98;58.42;99058.00;4992818;28;7931;-75
2022/11/23 19:13:54;;;;;;;;;;;;;;;12.01;58.28;99062.31;4997908;28;6788;-75
2022/11/23 19:16:29;;;;;;;;;;;;;;;12.04;58.57;99070.13;5027314;28;6958;-75
2022/11/23 19:19:01;;;;;;;;;;;;;;;12.05;58.50;99064.16;5008865;28;7220;-75
2022/11/23 19:21:31;;;;;;;;;;;;;;;12.10;58.60;99071.97;4999703;28;6800;-75
2022/11/23 19:23:58;;;;;;;;;;;;;;;12.10;58.52;99077.09;5018316;28;7469;-75
2022/11/23 19:26:25;;;;;;;;;;;;;;;12.13;58.60;99084.84;5030314;28;7222;-75
2022/11/23 19:28:53;;;;;;;;;;;;;;;12.16;58.21;99088.34;5000285;28;6842;-75
2022/11/23 19:31:23;;;;;;;;;;;;;;;12.17;58.25;99089.25;4998768;28;6816;-75
2022/11/23 19:33:51;;;;;;;;;;;;;;;12.18;58.50;99101.25;4982007;28;6804;-75
2022/11/23 19:36:20;;;;;;;;;;;;;;;12.20;58.26;99109.84;5005575;28;7006;-75
2022/11/23 19:38:49;;;;;;;;;;;;;;;12.20;58.20;99109.84;5001704;28;7864;-74
2022/11/23 19:41:16;;;;;;;;;;;;;;;12.24;58.03;99118.47;5006801;28;7013;-75
2022/11/23 19:43:42;;;;;;;;;;;;;;;12.22;58.47;99115.88;4994535;28;7142;-74
2022/11/23 19:46:12;;;;;;;;;;;;;;;12.24;57.98;99121.91;4998961;28;6839;-75
2022/11/23 19:48:38;;;;;;;;;;;;;;;12.26;58.36;99130.50;5002235;28;6788;-75
2022/11/23 19:51:11;;;;;;;;;;;;;;;12.26;58.16;99135.63;5018173;28;7076;-74
2022/11/23 19:53:41;;;;;;;;;;;;;;;12.28;58.31;99144.25;5032523;28;6804;-75
2022/11/23 19:56:11;;;;;;;;;;;;;;;12.29;57.99;99137.41;4999750;28;7203;-75
2022/11/23 19:58:38;;;;;;;;;;;;;;;12.32;58.03;99143.47;5015235;28;10284;-75
2022/11/23 20:01:12;;;;;;;;;;;;;;;12.33;58.26;99150.34;5011325;28;7309;-74
2022/11/23 20:03:45;;;;;;;;;;;;;;;12.34;58.37;99146.94;5010702;28;6804;-74
2022/11/23 20:06:15;;;;;;;;;;;;;;;12.38;57.95;99152.16;4982206;28;6992;-75
2022/11/23 20:08:42;;;;;;;;;;;;;;;12.40;58.58;99153.06;4995275;28;7631;-74
2022/11/23 20:11:13;;;;;;;;;;;;;;;12.43;58.64;99156.56;5002625;28;6812;-74
2022/11/23 20:13:39;;;;;;;;;;;;;;;12.45;57.93;99157.44;5003469;28;6816;-74
2022/11/23 20:16:11;;;;;;;;;;;;;;;12.49;57.92;99163.53;5035636;28;7012;-75
2022/11/23 20:18:38;;;;;;;;;;;;;;;12.51;57.98;99161.84;4998992;28;7056;-74
2022/11/23 20:21:11;;;;;;;;;;;;;;;12.56;58.28;99179.94;4999273;28;7158;-75
2022/11/23 20:23:38;;;;;;;;;;;;;;;12.59;58.50;99165.44;5000100;28;6966;-75
2022/11/23 20:26:04;;;;;;;;;;;;;;;12.63;58.27;99172.38;4984976;28;6974;-74
2022/11/23 20:28:29;;;;;;;;;;;;;;;12.68;58.00;99162.16;5039533;28;6788;-74
2022/11/23 20:30:55;;;;;;;;;;;;;;;12.72;57.77;99170.81;4996894;28;6844;-74
2022/11/23 20:33:21;;;;;;;;;;;;;;;12.75;57.99;99173.47;5001463;28;7373;-74
2022/11/23 20:35:47;;;;;;;;;;;;;;;12.77;58.15;99169.22;5016291;28;7196;-75
2022/11/23 20:38:13;;;;;;;;;;;;;;;12.80;57.58;99182.13;5015503;28;7012;-74
2022/11/23 20:40:39;;;;;;;;;;;;;;;12.81;58.02;99178.72;5002508;28;6999;-74
2022/11/23 20:43:04;;;;;;;;;;;;;;;12.83;57.85;99181.31;5006328;28;7241;-74
2022/11/23 20:45:30;;;;;;;;;;;;;;;12.82;57.69;99185.56;5015657;28;6969;-74
2022/11/23 20:47:56;;;;;;;;;;;;;;;12.82;58.54;99187.31;5005432;28;7197;-74
2022/11/23 20:50:25;;;;;;;;;;;;;;;12.86;57.50;99189.97;5007995;28;6924;-75
2022/11/23 20:53:01;;;;;;;;;;;;;;;12.92;57.64;99197.78;5000958;28;7155;-74
2022/11/23 20:55:28;;;;;;;;;;;;;;;12.95;57.65;99204.69;4990089;28;7905;-74
2022/11/23 20:57:54;;;;;;;;;;;;;;;12.98;57.43;99207.31;4996189;28;7192;-74
2022/11/23 21:00:21;;;;;;;;;;;;;;;13.02;57.89;99205.66;4983038;28;6856;-74
2022/11/23 21:02:52;;;;;;;;;;;;;;;13.02;57.70;99208.25;4998184;28;7052;-75
2022/11/23 21:05:19;;;;;;;;;;;;;;;13.03;57.60;99212.53;5002840;28;6812;-75
2022/11/23 21:07:46;;;;;;;;;;;;;;;13.08;57.88;99207.47;4995686;28;7180;-74
2022/11/23 21:14:05;;;;;;;;;;;;;;;13.08;57.27;99216.09;5036753;28;6993;-75
2022/11/23 21:15:45;;;;;;;;;;;;;;;13.14;57.65;99218.78;4998425;28;7170;-74
2022/11/23 21:18:11;;;;;;;;;;;;;;;13.20;57.73;99230.88;4979078;28;6999;-75
2022/11/23 21:20:36;;;;;;;;;;;;;;;13.28;57.92;99231.91;4996771;28;8719;-75
2022/11/23 21:23:03;;;;;;;;;;;;;;;13.34;57.16;99228.56;4998666;28;6768;-74
2022/11/23 21:25:28;;;;;;;;;;;;;;;13.36;56.91;99224.31;4997466;28;6985;-74
2022/11/23 21:27:54;;;;;;;;;;;;;;;13.36;56.80;99216.59;5002284;28;6835;-74
2022/11/23 21:30:22;;;;;;;;;;;;;;;13.36;56.64;99220.84;4999358;28;6780;-74
2022/11/23 21:32:48;;;;;;;;;;;;;;;13.32;57.03;99232.78;5001951;28;7121;-74
2022/11/23 21:35:14;;;;;;;;;;;;;;;13.34;56.63;99244.00;5019183;28;6971;-74
2022/11/23 21:37:40;;;;;;;;;;;;;;;13.32;57.56;99243.09;5001798;28;6772;-74
2022/11/23 21:40:06;;;;;;;;;;;;;;;13.32;56.82;99243.09;5000589;28;6760;-74
2022/11/23 21:42:32;;;;;;;;;;;;;;;13.31;57.47;99252.53;4999681;28;7176;-74
2022/11/23 21:45:00;;;;;;;;;;;;;;;13.32;57.21;99245.66;5001008;28;6775;-74
2022/11/23 21:47:27;;;;;;;;;;;;;;;13.31;56.34;99247.38;5030149;28;7761;-74
2022/11/23 21:49:53;;;;;;;;;;;;;;;13.30;57.24;99262.78;5002918;28;6804;-74
2022/11/23 21:52:18;;;;;;;;;;;;;;;13.30;56.59;99252.50;5000620;28;7828;-74
2022/11/23 21:54:44;;;;;;;;;;;;;;;13.28;57.16;99261.91;5032551;28;7078;-74
2022/11/23 21:57:10;;;;;;;;;;;;;;;13.27;56.51;99260.16;5001391;28;6910;-74
2022/11/23 21:59:35;;;;;;;;;;;;;;;13.26;56.43;99261.00;4999286;28;6859;-74
2022/11/23 22:05:42;;;;;;;;;;;;;;;13.17;57.16;99278.00;4998465;28;6756;-74
2022/11/23 22:08:07;;;;;;;;;;;;;;;13.16;57.19;99276.25;5026384;28;6828;-74
2022/11/23 22:10:33;;;;;;;;;;;;;;;13.18;57.30;99284.88;5038157;28;6953;-75
2022/11/23 22:12:58;;;;;;;;;;;;;;;13.15;56.68;99276.22;5001162;28;6775;-74
2022/11/23 22:15:25;;;;;;;;;;;;;;;13.14;56.68;99282.22;5011532;28;6956;-74
2022/11/23 22:17:51;;;;;;;;;;;;;;;13.13;56.60;99288.19;4998019;28;7150;-74
2022/11/23 22:20:16;;;;;;;;;;;;;;;13.13;57.10;99301.06;4999753;28;6926;-74
2022/11/23 22:22:42;;;;;;;;;;;;;;;13.12;56.63;99292.47;5004256;28;7061;-74
2022/11/23 22:25:08;;;;;;;;;;;;;;;13.10;56.55;99301.00;5029007;28;6792;-74
2022/11/23 22:27:35;;;;;;;;;;;;;;;13.09;56.56;99301.84;5003927;28;6952;-74
2022/11/23 22:30:00;;;;;;;;;;;;;;;13.09;56.86;99307.00;5004296;28;6804;-74
2022/11/23 22:32:26;;;;;;;;;;;;;;;13.10;57.45;99308.72;5021817;28;6907;-74
2022/11/23 22:34:52;;;;;;;;;;;;;;;13.10;57.34;99313.88;4998073;28;6764;-74
2022/11/23 22:37:17;;;;;;;;;;;;;;;13.10;56.64;99312.16;5033588;28;6986;-74
2022/11/23 22:39:43;;;;;;;;;;;;;;;13.09;56.59;99318.13;4996002;28;6775;-74
2022/11/23 22:42:08;;;;;;;;;;;;;;;13.09;56.90;99310.41;4997412;28;6780;-74
2022/11/23 22:44:34;;;;;;;;;;;;;;;13.10;56.91;99316.44;4999511;28;7154;-74
2022/11/23 22:47:00;;;;;;;;;;;;;;;13.10;56.86;99325.00;5001224;28;6979;-74
2022/11/23 22:49:26;;;;;;;;;;;;;;;13.11;56.29;99321.59;5000774;28;6930;-74
2022/11/23 22:51:51;;;;;;;;;;;;;;;13.10;56.42;99317.28;5013547;28;6955;-74
2022/11/23 22:54:17;;;;;;;;;;;;;;;13.11;56.63;99329.31;5000561;28;6771;-74
2022/11/23 22:56:43;;;;;;;;;;;;;;;13.12;57.05;99320.75;4997222;28;6835;-74
2022/11/23 22:59:08;;;;;;;;;;;;;;;13.15;56.97;99331.13;5032258;28;7074;-74
2022/11/23 23:01:34;;;;;;;;;;;;;;;13.17;56.88;99323.44;4994589;28;6859;-73
2022/11/23 23:04:01;;;;;;;;;;;;;;;13.18;56.40;99330.31;5002024;28;6966;-74
2022/11/23 23:06:33;;;;;;;;;;;;;;;13.18;56.68;99338.03;4995655;28;7864;-74
2022/11/23 23:09:00;;;;;;;;;;;;;;;13.17;56.21;99350.03;5003620;28;7220;-74
2022/11/23 23:11:29;;;;;;;;;;;;;;;13.22;55.91;99341.53;5003590;28;6875;-73
2022/11/23 23:13:56;;;;;;;;;;;;;;;13.23;56.09;99348.41;5035335;28;6784;-73
2022/11/23 23:16:22;;;;;;;;;;;;;;;13.25;56.81;99351.91;5002061;28;6831;-74
2022/11/23 23:18:48;;;;;;;;;;;;;;;13.27;55.76;99347.66;5004998;28;6788;-74
2022/11/23 23:21:20;;;;;;;;;;;;;;;13.28;55.81;99351.97;5000397;28;6946;-74
2022/11/23 23:23:49;;;;;;;;;;;;;;;13.30;56.16;99360.56;5000974;28;6858;-74
2022/11/23 23:26:19;;;;;;;;;;;;;;;13.30;55.77;99355.41;4991110;28;6986;-74
2022/11/23 23:28:45;;;;;;;;;;;;;;;13.34;55.77;99357.25;5002218;28;7208;-73
2022/11/23 23:31:14;;;;;;;;;;;;;;;13.34;55.58;99367.53;5005689;28;6796;-74
2022/11/23 23:33:44;;;;;;;;;;;;;;;13.35;56.32;99358.97;5001169;28;6784;-74
2022/11/23 23:36:18;;;;;;;;;;;;;;;13.39;55.87;99375.34;5003282;28;6804;-74
2022/11/23 23:38:44;;;;;;;;;;;;;;;13.42;56.11;99375.41;5004611;28;6804;-74
2022/11/23 23:41:12;;;;;;;;;;;;;;;13.45;55.64;99376.34;5003776;28;6776;-74
2022/11/23 23:43:39;;;;;;;;;;;;;;;13.45;56.03;99378.94;4996041;28;7133;-75
2022/11/23 23:46:08;;;;;;;;;;;;;;;13.42;55.78;99376.28;5002072;28;7467;-74
2022/11/23 23:48:37;;;;;;;;;;;;;;;13.42;55.80;99384.00;5008228;28;6853;-74
2022/11/23 23:51:08;;;;;;;;;;;;;;;13.42;55.78;99381.44;5008076;28;6820;-74
2022/11/23 23:53:35;;;;;;;;;;;;;;;13.44;55.07;99386.59;4981744;28;6970;-74
2022/11/23 23:56:24;;;;;;;;;;;;;;;13.43;54.57;99378.00;5002438;28;7404;-74
2022/11/23 23:58:50;;;;;;;;;;;;;;;13.41;54.77;99383.97;5007819;28;6819;-74
